createdAt,value
2018-06-25T00:02:08.884Z,100453.95
2018-06-25T00:04:38.575Z,100456.33
2018-06-25T00:07:08.233Z,100443.89
2018-06-25T00:09:37.903Z,100459.02
2018-06-25T00:12:07.613Z,100458.48
2018-06-25T00:14:37.275Z,100466.03
2018-06-25T00:17:06.941Z,100464.17
2018-06-25T00:19:36.716Z,100472.92
2018-06-25T00:22:06.439Z,100466.20
2018-06-25T00:24:36.136Z,100468.38
2018-06-25T00:27:05.837Z,100474.27
2018-06-25T00:29:35.533Z,100472.58
2018-06-25T00:32:05.295Z,100477.78
2018-06-25T00:34:34.978Z,100480.15
2018-06-25T00:37:04.640Z,100475.94
2018-06-25T00:39:34.565Z,100476.43
2018-06-25T00:42:04.249Z,100469.23
2018-06-25T00:44:33.960Z,100468.38
2018-06-25T00:47:03.720Z,100465.38
2018-06-25T00:49:33.383Z,100466.73
2018-06-25T00:52:03.157Z,100467.20
2018-06-25T00:54:32.837Z,100475.61
2018-06-25T00:57:02.512Z,100470.23
2018-06-25T00:59:43.253Z,100466.20
2018-06-25T01:02:12.879Z,100470.57
2018-06-25T01:04:49.251Z,100471.22
2018-06-25T01:07:19.322Z,100475.09
2018-06-25T01:09:49.289Z,100474.77
2018-06-25T01:12:19.027Z,100477.47
2018-06-25T01:14:48.724Z,100473.26
2018-06-25T01:17:18.486Z,100479.45
2018-06-25T01:19:48.156Z,100478.08
2018-06-25T01:22:17.855Z,100480.77
2018-06-25T01:24:47.535Z,100475.39
2018-06-25T01:27:17.256Z,100480.63
2018-06-25T01:29:46.943Z,100475.44
2018-06-25T01:32:16.612Z,100484.66
2018-06-25T01:34:52.761Z,100482.27
2018-06-25T01:37:22.419Z,100479.90
2018-06-25T01:39:52.136Z,100485.14
2018-06-25T01:42:21.798Z,100480.97
2018-06-25T01:44:51.445Z,100482.80
2018-06-25T01:47:21.131Z,100477.54
2018-06-25T01:49:50.772Z,100477.72
2018-06-25T01:52:20.431Z,100476.20
2018-06-25T01:54:50.136Z,100472.82
2018-06-25T01:57:19.780Z,100473.52
2018-06-25T01:59:49.458Z,100471.17
2018-06-25T02:02:19.250Z,100472.52
2018-06-25T02:04:48.920Z,100476.55
2018-06-25T02:07:18.586Z,100470.17
2018-06-25T02:09:48.288Z,100470.31
2018-06-25T02:12:17.941Z,100465.80
2018-06-25T02:14:47.613Z,100467.48
2018-06-25T02:17:17.348Z,100470.84
2018-06-25T02:19:47.038Z,100466.80
2018-06-25T02:22:16.720Z,100468.83
2018-06-25T02:24:46.452Z,100473.19
2018-06-25T02:27:16.156Z,100474.22
2018-06-25T02:29:45.804Z,100471.83
2018-06-25T02:32:15.724Z,100480.06
2018-06-25T02:34:45.429Z,100472.52
2018-06-25T02:37:15.145Z,100470.65
2018-06-25T02:39:44.792Z,100473.67
2018-06-25T02:42:14.451Z,100471.16
2018-06-25T02:44:44.169Z,100473.50
2018-06-25T02:47:13.840Z,100471.48
2018-06-25T02:49:43.492Z,100468.96
2018-06-25T02:52:13.198Z,100474.50
2018-06-25T02:54:42.861Z,100479.22
2018-06-25T02:57:12.531Z,100477.87
2018-06-25T02:59:42.247Z,100477.87
2018-06-25T03:02:11.900Z,100475.02
2018-06-25T03:04:41.573Z,100479.23
2018-06-25T03:07:11.253Z,100476.02
2018-06-25T03:09:40.968Z,100485.59
2018-06-25T03:12:10.689Z,100483.75
2018-06-25T03:14:40.596Z,100486.30
2018-06-25T03:17:10.241Z,100487.30
2018-06-25T03:19:39.907Z,100481.58
2018-06-25T03:22:09.600Z,100485.78
2018-06-25T03:24:39.256Z,100485.95
2018-06-25T03:27:08.900Z,100492.13
2018-06-25T03:29:38.585Z,100490.97
2018-06-25T03:32:08.236Z,100494.00
2018-06-25T03:34:37.896Z,100496.52
2018-06-25T03:37:07.596Z,100509.78
2018-06-25T03:39:37.265Z,100508.09
2018-06-25T03:42:07.111Z,100505.41
2018-06-25T03:44:36.781Z,100508.96
2018-06-25T03:47:06.443Z,100514.34
2018-06-25T03:49:36.220Z,100516.16
2018-06-25T03:52:05.914Z,100519.88
2018-06-25T03:54:35.601Z,100521.04
2018-06-25T03:57:11.896Z,100522.86
2018-06-25T03:59:41.543Z,100530.61
2018-06-25T04:02:11.283Z,100529.27
2018-06-25T04:04:40.940Z,100524.56
2018-06-25T04:07:10.588Z,100532.83
2018-06-25T04:09:40.296Z,100535.70
2018-06-25T04:12:10.013Z,100536.39
2018-06-25T04:14:39.638Z,100532.36
2018-06-25T04:17:09.316Z,100536.93
2018-06-25T04:19:38.961Z,100537.41
2018-06-25T04:22:08.628Z,100535.23
2018-06-25T04:24:38.304Z,100534.37
2018-06-25T04:27:07.947Z,100537.91
2018-06-25T04:29:37.608Z,100530.85
2018-06-25T04:32:07.304Z,100533.72
2018-06-25T04:34:36.955Z,100540.62
2018-06-25T04:37:06.634Z,100545.66
2018-06-25T04:39:36.369Z,100541.97
2018-06-25T04:42:06.059Z,100542.98
2018-06-25T04:44:35.739Z,100538.48
2018-06-25T04:47:05.447Z,100542.52
2018-06-25T04:49:35.115Z,100557.30
2018-06-25T04:52:04.857Z,100555.95
2018-06-25T04:54:34.648Z,100551.59
2018-06-25T04:57:04.375Z,100546.55
2018-06-25T04:59:34.071Z,100548.06
2018-06-25T05:02:03.756Z,100553.80
2018-06-25T05:04:33.389Z,100558.17
2018-06-25T05:07:03.076Z,100557.48
2018-06-25T05:09:32.720Z,100561.03
2018-06-25T05:12:02.360Z,100557.14
2018-06-25T05:14:32.069Z,100557.83
2018-06-25T05:17:01.752Z,100552.45
2018-06-25T05:19:31.405Z,100556.48
2018-06-25T05:22:01.120Z,100555.33
2018-06-25T05:24:30.820Z,100556.84
2018-06-25T05:27:00.516Z,100558.71
2018-06-25T05:29:30.324Z,100558.71
2018-06-25T05:32:00.055Z,100561.75
2018-06-25T05:34:29.758Z,100567.64
2018-06-25T05:36:59.497Z,100566.64
2018-06-25T05:39:29.205Z,100558.74
2018-06-25T05:41:58.891Z,100562.12
2018-06-25T05:44:28.614Z,100555.37
2018-06-25T05:46:58.264Z,100561.58
2018-06-25T05:49:27.928Z,100560.58
2018-06-25T05:51:57.680Z,100572.52
2018-06-25T05:54:27.563Z,100571.18
2018-06-25T05:56:57.252Z,100566.48
2018-06-25T05:59:26.929Z,100566.47
2018-06-25T06:01:56.611Z,100563.13
2018-06-25T06:04:26.297Z,100567.50
2018-06-25T06:06:55.997Z,100573.88
2018-06-25T06:09:25.641Z,100577.24
2018-06-25T06:11:55.348Z,100570.67
2018-06-25T06:14:25.000Z,100568.16
2018-06-25T06:16:54.671Z,100576.91
2018-06-25T06:19:24.371Z,100576.39
2018-06-25T06:21:54.068Z,100579.25
2018-06-25T06:24:23.751Z,100578.90
2018-06-25T06:26:53.425Z,100580.92
2018-06-25T06:29:23.052Z,100579.08
2018-06-25T06:31:52.680Z,100583.62
2018-06-25T06:34:22.363Z,100582.73
2018-06-25T06:36:52.036Z,100585.59
2018-06-25T06:39:21.679Z,100585.56
2018-06-25T06:41:51.375Z,100581.84
2018-06-25T06:44:21.013Z,100588.03
2018-06-25T06:46:50.671Z,100580.39
2018-06-25T06:49:21.903Z,100574.94
2018-06-25T06:51:51.550Z,100573.36
2018-06-25T06:54:21.260Z,100581.88
2018-06-25T06:56:50.900Z,100585.32
2018-06-25T06:59:20.591Z,100583.48
2018-06-25T07:01:50.260Z,100576.89
2018-06-25T07:04:19.886Z,100580.95
2018-06-25T07:06:49.537Z,100576.86
2018-06-25T07:09:19.239Z,100588.40
2018-06-25T07:11:48.880Z,100586.37
2018-06-25T07:14:18.528Z,100576.70
2018-06-25T07:16:48.206Z,100584.30
2018-06-25T07:19:17.817Z,100585.83
2018-06-25T07:21:47.456Z,100578.91
2018-06-25T07:24:17.133Z,100583.28
2018-06-25T07:26:46.781Z,100576.89
2018-06-25T07:29:16.469Z,100581.73
2018-06-25T07:31:46.125Z,100586.42
2018-06-25T07:34:15.789Z,100586.85
2018-06-25T07:36:45.463Z,100590.41
2018-06-25T07:39:15.140Z,100587.61
2018-06-25T07:41:44.836Z,100587.58
2018-06-25T07:44:14.505Z,100590.77
2018-06-25T07:46:44.196Z,100590.28
2018-06-25T07:49:13.864Z,100589.98
2018-06-25T07:51:43.529Z,100583.91
2018-06-25T07:54:13.440Z,100585.59
2018-06-25T07:56:43.100Z,100586.94
2018-06-25T07:59:12.729Z,100593.68
2018-06-25T08:01:42.420Z,100591.33
2018-06-25T08:04:12.037Z,100598.66
2018-06-25T08:06:41.667Z,100597.84
2018-06-25T08:09:12.178Z,100602.19
2018-06-25T08:11:41.847Z,100583.72
2018-06-25T08:14:11.508Z,100584.73
2018-06-25T08:16:41.321Z,100584.27
2018-06-25T08:19:10.934Z,100587.48
2018-06-25T08:21:40.595Z,100591.49
2018-06-25T08:24:10.348Z,100591.11
2018-06-25T08:26:40.059Z,100595.08
2018-06-25T08:29:10.688Z,100600.63
2018-06-25T08:31:40.398Z,100597.41
2018-06-25T08:34:10.212Z,100596.87
2018-06-25T08:36:39.865Z,100594.84
2018-06-25T08:39:11.816Z,100600.61
2018-06-25T08:41:41.993Z,100604.69
2018-06-25T08:44:11.688Z,100608.86
2018-06-25T08:46:41.313Z,100612.66
2018-06-25T08:49:11.182Z,100611.31
2018-06-25T08:51:40.903Z,100616.45
2018-06-25T08:54:10.584Z,100623.48
2018-06-25T08:56:40.312Z,100621.41
2018-06-25T08:59:10.207Z,100625.55
2018-06-25T09:01:39.873Z,100627.90
2018-06-25T09:04:09.587Z,100632.50
2018-06-25T09:06:39.237Z,100628.12
2018-06-25T09:09:10.940Z,100629.17
2018-06-25T09:11:40.588Z,100629.75
2018-06-25T09:14:10.377Z,100627.81
2018-06-25T09:16:40.083Z,100623.76
2018-06-25T09:19:09.729Z,100628.25
2018-06-25T09:21:39.445Z,100624.98
2018-06-25T09:24:09.121Z,100627.55
2018-06-25T09:26:41.740Z,100637.27
2018-06-25T09:29:12.403Z,100628.70
2018-06-25T09:31:42.101Z,100631.38
2018-06-25T09:34:16.821Z,100635.94
2018-06-25T09:36:46.616Z,100633.09
2018-06-25T09:39:16.304Z,100637.64
2018-06-25T09:41:46.170Z,100628.17
2018-06-25T09:44:15.721Z,100630.64
2018-06-25T09:46:45.389Z,100633.55
2018-06-25T09:49:15.094Z,100643.72
2018-06-25T09:51:44.761Z,100642.70
2018-06-25T09:54:14.466Z,100642.00
2018-06-25T09:56:44.228Z,100638.17
2018-06-25T09:59:13.909Z,100635.46
2018-06-25T10:01:43.648Z,100633.02
2018-06-25T10:04:13.359Z,100643.09
2018-06-25T10:06:43.034Z,100640.88
2018-06-25T10:09:13.165Z,100645.89
2018-06-25T10:11:42.830Z,100650.56
2018-06-25T10:14:12.542Z,100654.89
2018-06-25T10:16:42.216Z,100641.90
2018-06-25T10:19:11.880Z,100641.56
2018-06-25T10:21:41.601Z,100639.58
2018-06-25T10:24:11.284Z,100637.56
2018-06-25T10:26:40.953Z,100638.99
2018-06-25T10:29:10.646Z,100640.48
2018-06-25T10:31:40.297Z,100636.36
2018-06-25T10:34:09.949Z,100642.23
2018-06-25T10:36:39.637Z,100648.11
2018-06-25T10:39:10.803Z,100644.08
2018-06-25T10:41:40.514Z,100643.39
2018-06-25T10:44:10.339Z,100646.22
2018-06-25T10:46:40.008Z,100648.66
2018-06-25T10:49:09.737Z,100652.87
2018-06-25T10:51:39.393Z,100648.18
2018-06-25T10:54:09.311Z,100648.94
2018-06-25T10:56:39.004Z,100650.89
2018-06-25T10:59:08.664Z,100649.00
2018-06-25T11:01:38.474Z,100645.83
2018-06-25T11:04:08.272Z,100648.84
2018-06-25T11:06:37.989Z,100649.48
2018-06-25T11:09:09.868Z,100656.44
2018-06-25T11:11:39.553Z,100658.15
2018-06-25T11:14:09.311Z,100662.11
2018-06-25T11:16:39.029Z,100660.56
2018-06-25T11:19:08.717Z,100663.41
2018-06-25T11:21:38.461Z,100662.34
2018-06-25T11:24:08.168Z,100662.57
2018-06-25T11:26:37.854Z,100658.04
2018-06-25T11:29:07.573Z,100660.96
2018-06-25T11:31:37.237Z,100655.28
2018-06-25T11:34:06.908Z,100649.44
2018-06-25T11:36:36.632Z,100649.41
2018-06-25T11:39:08.862Z,100647.02
2018-06-25T11:41:38.627Z,100652.03
2018-06-25T11:44:08.339Z,100649.73
2018-06-25T11:46:38.000Z,100651.91
2018-06-25T11:49:07.709Z,100659.47
2018-06-25T11:51:37.364Z,100659.94
2018-06-25T11:54:07.772Z,100654.77
2018-06-25T11:56:37.434Z,100658.29
2018-06-25T11:59:07.148Z,100652.50
2018-06-25T12:01:36.883Z,100657.47
2018-06-25T12:04:06.602Z,100645.34
2018-06-25T12:06:36.314Z,100649.38
2018-06-25T12:09:07.874Z,100658.92
2018-06-25T12:11:37.576Z,100667.94
2018-06-25T12:14:07.326Z,100663.91
2018-06-25T12:16:37.443Z,100665.72
2018-06-25T12:19:07.122Z,100668.71
2018-06-25T12:21:37.232Z,100675.13
2018-06-25T12:24:06.947Z,100673.40
2018-06-25T12:26:36.632Z,100658.52
2018-06-25T12:29:06.366Z,100663.22
2018-06-25T12:31:36.196Z,100665.48
2018-06-25T12:34:05.829Z,100665.19
2018-06-25T12:36:35.513Z,100664.42
2018-06-25T12:39:08.231Z,100662.62
2018-06-25T12:41:37.921Z,100665.84
2018-06-25T12:44:08.469Z,100666.84
2018-06-25T12:46:38.824Z,100677.20
2018-06-25T12:49:08.508Z,100673.18
2018-06-25T12:51:38.212Z,100669.78
2018-06-25T12:54:07.852Z,100669.70
2018-06-25T12:56:37.515Z,100675.50
2018-06-25T12:59:07.223Z,100682.47
2018-06-25T13:01:36.946Z,100680.87
2018-06-25T13:04:06.898Z,100677.13
2018-06-25T13:06:36.690Z,100680.22
2018-06-25T13:09:09.500Z,100679.23
2018-06-25T13:11:39.245Z,100685.59
2018-06-25T13:14:09.303Z,100685.06
2018-06-25T13:16:39.005Z,100681.52
2018-06-25T13:19:08.715Z,100685.44
2018-06-25T13:21:38.380Z,100685.35
2018-06-25T13:24:08.104Z,100691.11
2018-06-25T13:26:37.760Z,100686.05
2018-06-25T13:29:07.524Z,100681.73
2018-06-25T13:31:37.224Z,100676.84
2018-06-25T13:34:06.900Z,100678.31
2018-06-25T13:36:36.556Z,100685.22
2018-06-25T13:39:08.611Z,100681.06
2018-06-25T13:41:38.264Z,100681.50
2018-06-25T13:44:07.924Z,100683.69
2018-06-25T13:46:37.632Z,100687.78
2018-06-25T13:49:07.288Z,100680.26
2018-06-25T13:51:36.919Z,100681.13
2018-06-25T13:54:06.750Z,100682.62
2018-06-25T13:56:36.956Z,100672.19
2018-06-25T13:59:06.708Z,100680.47
2018-06-25T14:01:36.431Z,100674.13
2018-06-25T14:04:06.472Z,100679.44
2018-06-25T14:06:36.144Z,100669.23
2018-06-25T14:09:08.265Z,100666.55
2018-06-25T14:11:37.980Z,100675.05
2018-06-25T14:14:08.395Z,100673.78
2018-06-25T14:16:38.648Z,100679.17
2018-06-25T14:19:08.458Z,100679.00
2018-06-25T14:21:38.148Z,100674.98
2018-06-25T14:24:13.106Z,100675.28
2018-06-25T14:26:43.273Z,100676.70
2018-06-25T14:29:18.290Z,100680.36
2018-06-25T14:31:47.965Z,100679.14
2018-06-25T14:34:23.076Z,100681.20
2018-06-25T14:36:52.983Z,100674.77
2018-06-25T14:39:22.736Z,100674.02
2018-06-25T14:41:52.452Z,100670.55
2018-06-25T14:44:22.140Z,100670.11
2018-06-25T14:46:51.897Z,100670.44
2018-06-25T14:49:21.614Z,100674.90
2018-06-25T14:51:51.362Z,100670.53
2018-06-25T14:54:21.077Z,100682.04
2018-06-25T14:56:50.839Z,100680.95
2018-06-25T14:59:20.655Z,100680.91
2018-06-25T15:01:50.509Z,100683.67
2018-06-25T15:04:20.285Z,100686.14
2018-06-25T15:06:49.980Z,100671.77
2018-06-25T15:09:19.646Z,100678.44
2018-06-25T15:11:49.376Z,100678.73
2018-06-25T15:14:19.064Z,100678.20
2018-06-25T15:16:48.724Z,100680.30
2018-06-25T15:19:18.567Z,100682.30
2018-06-25T15:21:48.244Z,100681.92
2018-06-25T15:24:17.990Z,100684.72
2018-06-25T15:26:48.049Z,100688.64
2018-06-25T15:29:17.693Z,100687.57
2018-06-25T15:31:47.504Z,100678.44
2018-06-25T15:34:17.173Z,100682.27
2018-06-25T15:36:46.860Z,100686.25
2018-06-25T15:39:16.714Z,100692.83
2018-06-25T15:41:46.447Z,100689.88
2018-06-25T15:44:16.122Z,100690.44
2018-06-25T15:46:45.805Z,100684.55
2018-06-25T15:49:15.453Z,100678.94
2018-06-25T15:51:45.167Z,100680.94
2018-06-25T15:54:14.810Z,100676.84
2018-06-25T15:56:44.494Z,100677.30
2018-06-25T15:59:14.221Z,100677.63
2018-06-25T16:01:43.875Z,100679.02
2018-06-25T16:04:13.592Z,100680.94
2018-06-25T16:06:43.376Z,100673.57
2018-06-25T16:09:13.065Z,100668.52
2018-06-25T16:11:42.743Z,100669.91
2018-06-25T16:14:12.453Z,100662.95
2018-06-25T16:16:42.120Z,100667.47
2018-06-25T16:19:11.787Z,100663.59
2018-06-25T16:21:41.712Z,100660.83
2018-06-25T16:24:11.345Z,100659.23
2018-06-25T16:26:40.963Z,100656.28
2018-06-25T16:29:10.727Z,100653.09
2018-06-25T16:31:40.388Z,100655.99
2018-06-25T16:34:10.134Z,100648.81
2018-06-25T16:36:40.788Z,100651.76
2018-06-25T16:39:12.339Z,100654.20
2018-06-25T16:41:42.105Z,100645.22
2018-06-25T16:44:11.751Z,100646.67
2018-06-25T16:46:41.436Z,100641.03
2018-06-25T16:49:11.154Z,100638.66
2018-06-25T16:51:40.788Z,100644.30
2018-06-25T16:54:10.487Z,100639.80
2018-06-25T16:56:40.147Z,100649.96
2018-06-25T16:59:09.811Z,100642.19
2018-06-25T17:01:39.520Z,100638.78
2018-06-25T17:04:09.165Z,100642.14
2018-06-25T17:06:38.839Z,100637.31
2018-06-25T17:09:11.050Z,100631.97
2018-06-25T17:11:41.532Z,100631.09
2018-06-25T17:14:11.309Z,100639.70
2018-06-25T17:16:40.980Z,100630.50
2018-06-25T17:19:11.303Z,100630.56
2018-06-25T17:21:40.974Z,100625.28
2018-06-25T17:24:10.705Z,100624.16
2018-06-25T17:26:40.385Z,100620.84
2018-06-25T17:29:10.040Z,100627.08
2018-06-25T17:31:39.664Z,100632.18
2018-06-25T17:34:09.340Z,100616.25
2018-06-25T17:36:38.984Z,100623.42
2018-06-25T17:39:09.240Z,100625.31
2018-06-25T17:41:38.875Z,100630.59
2018-06-25T17:44:08.583Z,100631.77
2018-06-25T17:46:38.265Z,100633.02
2018-06-25T17:49:07.899Z,100625.25
2018-06-25T17:51:37.579Z,100626.38
2018-06-25T17:54:07.319Z,100626.34
2018-06-25T17:56:36.956Z,100636.66
2018-06-25T17:59:06.736Z,100635.02
2018-06-25T18:01:36.549Z,100646.41
2018-06-25T18:04:06.208Z,100645.70
2018-06-25T18:06:35.872Z,100643.61
2018-06-25T18:09:08.912Z,100638.14
2018-06-25T18:11:38.544Z,100636.78
2018-06-25T18:14:08.260Z,100645.91
2018-06-25T18:16:37.914Z,100641.38
2018-06-25T18:19:07.648Z,100643.02
2018-06-25T18:21:37.331Z,100629.84
2018-06-25T18:24:07.020Z,100624.86
2018-06-25T18:26:36.688Z,100628.69
2018-06-25T18:29:06.387Z,100629.62
2018-06-25T18:31:36.588Z,100628.15
2018-06-25T18:34:06.319Z,100627.85
2018-06-25T18:36:35.980Z,100623.98
2018-06-25T18:39:08.827Z,100624.84
2018-06-25T18:41:38.532Z,100626.94
2018-06-25T18:44:08.292Z,100629.52
2018-06-25T18:46:38.029Z,100627.55
2018-06-25T18:49:07.835Z,100624.13
2018-06-25T18:51:37.535Z,100636.64
2018-06-25T18:54:07.192Z,100632.94
2018-06-25T18:56:36.823Z,100628.58
2018-06-25T18:59:06.560Z,100634.83
2018-06-25T19:01:36.220Z,100634.89
2018-06-25T19:04:06.433Z,100637.21
2018-06-25T19:06:36.073Z,100638.23
2018-06-25T19:09:10.285Z,100633.91
2018-06-25T19:11:40.268Z,100633.42
2018-06-25T19:14:09.923Z,100644.61
2018-06-25T19:16:39.628Z,100642.36
2018-06-25T19:19:09.314Z,100637.15
2018-06-25T19:21:38.957Z,100643.13
2018-06-25T19:24:08.670Z,100638.17
2018-06-25T19:26:38.332Z,100641.58
2018-06-25T19:29:08.077Z,100645.20
2018-06-25T19:31:37.721Z,100644.28
2018-06-25T19:34:07.443Z,100645.20
2018-06-25T19:36:37.120Z,100642.86
2018-06-25T19:39:09.960Z,100647.17
2018-06-25T19:41:39.764Z,100653.05
2018-06-25T19:44:09.906Z,100657.75
2018-06-25T19:46:39.648Z,100660.65
2018-06-25T19:49:09.752Z,100660.65
2018-06-25T19:51:39.458Z,100671.28
2018-06-25T19:54:09.274Z,100668.34
2018-06-25T19:56:38.911Z,100669.22
2018-06-25T19:59:08.588Z,100671.54
2018-06-25T20:01:38.260Z,100675.98
2018-06-25T20:04:07.970Z,100674.71
2018-06-25T20:06:37.720Z,100681.48
2018-06-25T20:09:10.419Z,100678.45
2018-06-25T20:11:40.252Z,100681.83
2018-06-25T20:14:10.001Z,100684.47
2018-06-25T20:16:39.800Z,100684.39
2018-06-25T20:19:09.494Z,100681.20
2018-06-25T20:21:39.425Z,100678.67
2018-06-25T20:24:09.257Z,100689.22
2018-06-25T20:26:38.938Z,100690.73
2018-06-25T20:29:08.684Z,100700.02
2018-06-25T20:31:38.409Z,100705.52
2018-06-25T20:34:08.167Z,100711.61
2018-06-25T20:36:37.869Z,100718.80
2018-06-25T20:39:10.205Z,100717.80
2018-06-25T20:41:39.955Z,100721.71
2018-06-25T20:44:09.707Z,100718.56
2018-06-25T20:46:39.448Z,100720.97
2018-06-25T20:49:09.108Z,100714.25
2018-06-25T20:51:38.816Z,100722.07
2018-06-25T20:54:08.889Z,100724.06
2018-06-25T20:56:38.637Z,100720.95
2018-06-25T20:59:08.372Z,100731.46
2018-06-25T21:01:38.061Z,100734.88
2018-06-25T21:04:07.761Z,100732.36
2018-06-25T21:06:37.528Z,100731.02
2018-06-25T21:09:09.508Z,100732.26
2018-06-25T21:11:39.356Z,100731.28
2018-06-25T21:14:09.023Z,100739.60
2018-06-25T21:16:38.704Z,100736.16
2018-06-25T21:19:08.398Z,100736.20
2018-06-25T21:21:38.163Z,100734.88
2018-06-25T21:24:07.881Z,100736.78
2018-06-25T21:26:37.623Z,100742.70
2018-06-25T21:29:07.321Z,100736.62
2018-06-25T21:31:37.018Z,100738.66
2018-06-25T21:34:06.866Z,100742.73
2018-06-25T21:36:36.584Z,100738.66
2018-06-25T21:39:08.197Z,100745.65
2018-06-25T21:41:37.866Z,100751.54
2018-06-25T21:44:07.628Z,100750.71
2018-06-25T21:46:37.325Z,100754.37
2018-06-25T21:49:07.020Z,100751.87
2018-06-25T21:51:36.732Z,100750.19
2018-06-25T21:54:06.485Z,100749.88
2018-06-25T21:56:36.136Z,100743.80
2018-06-25T21:59:06.089Z,100743.13
2018-06-25T22:01:36.231Z,100756.63
2018-06-25T22:04:05.983Z,100751.39
2018-06-25T22:06:35.712Z,100749.73
2018-06-25T22:09:08.764Z,100753.31
2018-06-25T22:11:38.476Z,100749.59
2018-06-25T22:14:09.026Z,100750.64
2018-06-25T22:16:38.819Z,100759.23
2018-06-25T22:19:08.506Z,100753.00
2018-06-25T22:21:38.284Z,100756.03
2018-06-25T22:24:08.277Z,100754.01
2018-06-25T22:26:37.986Z,100757.20
2018-06-25T22:29:08.052Z,100754.70
2018-06-25T22:31:37.800Z,100757.59
2018-06-25T22:34:07.540Z,100760.15
2018-06-25T22:36:37.322Z,100761.86
2018-06-25T22:39:09.966Z,100763.56
2018-06-25T22:41:40.388Z,100765.27
2018-06-25T22:44:13.945Z,100766.30
2018-06-25T22:46:44.524Z,100759.91
2018-06-25T22:49:14.223Z,100757.39
2018-06-25T22:51:43.913Z,100760.09
2018-06-25T22:54:13.664Z,100768.19
2018-06-25T22:56:43.419Z,100757.23
2018-06-25T22:59:13.183Z,100762.32
2018-06-25T23:01:42.860Z,100754.91
2018-06-25T23:04:12.587Z,100759.75
2018-06-25T23:06:42.328Z,100752.54
2018-06-25T23:09:12.549Z,100749.86
2018-06-25T23:11:42.311Z,100754.55
2018-06-25T23:14:11.977Z,100760.30
2018-06-25T23:16:41.665Z,100763.15
2018-06-25T23:19:11.376Z,100763.81
2018-06-25T23:21:41.082Z,100766.05
2018-06-25T23:24:10.781Z,100769.75
2018-06-25T23:26:40.557Z,100772.27
2018-06-25T23:29:10.223Z,100775.33
2018-06-25T23:31:39.895Z,100772.58
2018-06-25T23:34:09.652Z,100770.08
2018-06-25T23:36:39.420Z,100776.00
2018-06-25T23:39:10.966Z,100767.57
2018-06-25T23:41:41.043Z,100773.81
2018-06-25T23:44:11.020Z,100768.27
2018-06-25T23:46:40.739Z,100763.22
2018-06-25T23:49:10.385Z,100770.62
2018-06-25T23:51:40.104Z,100767.59
2018-06-25T23:54:09.788Z,100770.45
2018-06-25T23:56:39.485Z,100772.66
2018-06-25T23:59:09.202Z,100764.06
